createdAt,value
2017-07-09T10:05:40.344Z,4.60
2017-07-09T10:08:09.170Z,4.50
2017-07-09T10:10:38.011Z,3.80
2017-07-09T10:13:06.840Z,5.20
2017-07-09T10:15:35.665Z,4.00
2017-07-09T10:18:04.591Z,4.60
2017-07-09T10:20:33.431Z,4.00
2017-07-09T10:23:02.260Z,4.57
2017-07-09T10:25:31.098Z,4.07
2017-07-09T10:27:59.950Z,4.10
2017-07-09T10:30:28.786Z,4.13
2017-07-09T10:32:57.625Z,4.70
2017-07-09T10:35:26.473Z,3.50
2017-07-09T10:37:55.322Z,3.23
2017-07-09T10:40:24.186Z,3.50
2017-07-09T10:42:53.037Z,3.37
2017-07-09T10:45:21.865Z,3.63
2017-07-09T10:47:50.705Z,3.57
2017-07-09T10:50:19.563Z,4.80
2017-07-09T10:52:48.388Z,4.00
2017-07-09T10:55:17.215Z,4.00
2017-07-09T10:57:46.069Z,4.43
2017-07-09T11:00:14.898Z,3.80
2017-07-09T11:02:43.728Z,3.13
2017-07-09T11:05:12.577Z,4.70
2017-07-09T11:07:41.411Z,4.13
2017-07-09T11:10:10.250Z,3.80
2017-07-09T11:12:39.102Z,4.70
2017-07-09T11:15:07.932Z,3.93
2017-07-09T11:17:36.757Z,4.17
2017-07-09T11:20:05.761Z,3.57
2017-07-09T11:22:34.583Z,4.17
2017-07-09T11:25:03.451Z,3.53
2017-07-09T11:27:32.310Z,3.67
2017-07-09T11:30:01.152Z,3.97
2017-07-09T11:32:29.984Z,5.00
2017-07-09T11:34:58.842Z,4.07
2017-07-09T11:37:27.699Z,203.90
2017-07-09T11:39:56.548Z,10.60
2017-07-09T11:42:25.393Z,53.63
2017-07-09T11:44:54.250Z,45.90
2017-07-09T11:47:23.094Z,20.80
2017-07-09T11:49:51.940Z,16.03
2017-07-09T11:52:20.770Z,5.40
2017-07-09T11:54:49.596Z,8.23
2017-07-09T11:57:18.441Z,7.13
2017-07-09T11:59:47.286Z,4.10
2017-07-09T12:02:16.117Z,8.90
2017-07-09T12:04:44.958Z,4.50
2017-07-09T12:07:13.799Z,5.10
2017-07-09T12:09:42.639Z,5.73
2017-07-09T12:12:11.494Z,3.50
2017-07-09T12:14:40.338Z,4.00
2017-07-09T12:17:09.178Z,16.37
2017-07-09T12:19:38.036Z,255.03
2017-07-09T12:22:06.881Z,111.50
2017-07-09T12:24:35.734Z,66.27
2017-07-09T12:27:04.600Z,58.00
2017-07-09T12:29:33.448Z,23.80
2017-07-09T12:32:02.297Z,72.73
2017-07-09T12:34:31.167Z,82.13
2017-07-09T12:37:00.005Z,41.77
2017-07-09T12:39:28.835Z,7.10
2017-07-09T12:41:57.707Z,13.23
2017-07-09T12:44:27.097Z,12.47
2017-07-09T12:46:55.940Z,15.80
2017-07-09T12:49:24.911Z,9.03
2017-07-09T12:51:53.756Z,12.87
2017-07-09T12:54:22.633Z,62.83
2017-07-09T12:56:51.487Z,69.70
2017-07-09T12:59:20.345Z,47.87
2017-07-09T13:01:49.230Z,58.23
2017-07-09T13:04:18.078Z,7.07
2017-07-09T13:06:46.933Z,66.83
2017-07-09T13:09:15.802Z,41.50
2017-07-09T13:11:44.654Z,35.50
2017-07-09T13:14:13.502Z,22.50
2017-07-09T13:16:42.352Z,20.90
2017-07-09T13:19:11.207Z,181.00
2017-07-09T13:21:40.044Z,170.60
2017-07-09T13:24:08.886Z,78.70
2017-07-09T13:26:37.744Z,52.13
2017-07-09T13:29:06.572Z,28.73
2017-07-09T13:31:35.527Z,23.50
2017-07-09T13:34:04.386Z,9.50
2017-07-09T13:36:33.235Z,11.30
2017-07-09T13:39:02.210Z,8.63
2017-07-09T13:41:31.067Z,7.60
2017-07-09T13:43:59.901Z,6.80
2017-07-09T13:46:28.741Z,4.40
2017-07-09T13:48:57.588Z,5.50
2017-07-09T13:51:26.416Z,5.40
2017-07-09T13:53:55.292Z,5.47
2017-07-09T13:56:24.141Z,5.07
2017-07-09T13:58:53.010Z,5.67
2017-07-09T14:01:21.912Z,5.30
2017-07-09T14:03:50.777Z,5.73
2017-07-09T14:06:19.609Z,5.67
2017-07-09T14:08:48.444Z,118.00
2017-07-09T14:11:17.322Z,215.03
2017-07-09T14:13:46.194Z,117.77
2017-07-09T14:16:15.041Z,44.23
2017-07-09T14:18:43.901Z,42.50
2017-07-09T14:21:12.734Z,23.23
2017-07-09T14:23:41.586Z,140.60
2017-07-09T14:26:10.535Z,245.93
2017-07-09T14:28:39.385Z,72.57
2017-07-09T14:31:08.221Z,88.90
2017-07-09T14:33:37.076Z,31.20
2017-07-09T14:36:05.912Z,89.40
2017-07-09T14:38:34.784Z,245.73
2017-07-09T14:41:03.688Z,85.63
2017-07-09T14:43:32.526Z,61.47
2017-07-09T14:46:01.360Z,36.47
2017-07-09T14:48:30.377Z,43.43
2017-07-09T14:50:59.236Z,40.43
2017-07-09T14:53:28.082Z,41.43
2017-07-09T14:55:56.947Z,34.13
2017-07-09T14:58:25.795Z,106.37
2017-07-09T15:00:54.663Z,179.60
2017-07-09T15:03:23.518Z,39.37
2017-07-09T15:05:52.358Z,62.67
2017-07-09T15:08:21.190Z,54.43
2017-07-09T15:10:50.047Z,59.33
2017-07-09T15:13:18.892Z,59.73
2017-07-09T15:15:47.730Z,59.30
2017-07-09T15:18:16.581Z,33.67
2017-07-09T15:20:45.422Z,28.73
2017-07-09T15:23:14.281Z,15.73
2017-07-09T15:25:43.136Z,16.10
2017-07-09T15:28:11.970Z,22.97
2017-07-09T15:30:40.814Z,13.00
2017-07-09T15:33:09.681Z,11.80
2017-07-09T15:35:38.518Z,7.43
2017-07-09T15:38:07.344Z,6.57
2017-07-09T15:40:36.179Z,5.87
2017-07-09T15:43:05.005Z,8.83
2017-07-09T15:45:33.858Z,6.27
2017-07-09T15:48:02.747Z,6.77
2017-07-09T15:50:31.569Z,5.47
2017-07-09T15:53:00.403Z,5.80
2017-07-09T15:55:29.241Z,5.50
2017-07-09T15:57:58.077Z,7.03
2017-07-09T16:00:27.558Z,5.63
2017-07-09T16:02:58.119Z,7.30
2017-07-09T16:05:28.415Z,5.73
2017-07-09T16:07:57.264Z,5.00
2017-07-09T16:10:26.105Z,5.20
2017-07-09T16:12:54.937Z,5.93
2017-07-09T16:15:24.462Z,5.53
2017-07-09T16:17:53.977Z,7.30
2017-07-09T16:20:23.337Z,7.50
2017-07-09T16:22:52.791Z,5.23
2017-07-09T16:25:22.040Z,5.40
2017-07-09T16:27:50.869Z,5.47
2017-07-09T16:30:19.710Z,6.50
2017-07-09T16:32:48.545Z,6.10
2017-07-09T16:35:19.306Z,5.83
2017-07-09T16:37:49.248Z,5.13
2017-07-09T16:40:18.087Z,6.63
2017-07-09T16:42:46.921Z,5.57
2017-07-09T16:45:15.782Z,5.63
2017-07-09T16:47:45.367Z,5.00
2017-07-09T16:50:16.579Z,4.87
2017-07-09T16:52:45.521Z,4.47
2017-07-09T16:55:14.359Z,23.70
2017-07-09T16:57:43.205Z,312.90
2017-07-09T17:00:12.056Z,18.30
2017-07-09T17:02:40.906Z,22.77
2017-07-09T17:05:09.742Z,32.90
2017-07-09T17:07:38.629Z,13.57
2017-07-09T17:10:07.457Z,10.00
2017-07-09T17:12:36.285Z,9.80
2017-07-09T17:15:05.133Z,6.60
2017-07-09T17:17:35.634Z,11.07
2017-07-09T17:20:04.610Z,10.57
2017-07-09T17:22:36.110Z,10.00
2017-07-09T17:25:07.369Z,8.00
2017-07-09T17:27:38.462Z,11.10
2017-07-09T17:30:09.669Z,9.80
2017-07-09T17:32:42.040Z,9.30
2017-07-09T17:35:12.774Z,7.57
2017-07-09T17:37:42.109Z,7.17
2017-07-09T17:40:11.933Z,6.90
2017-07-09T17:42:43.294Z,7.33
2017-07-09T17:45:15.722Z,7.13
2017-07-09T17:47:44.757Z,4.87
2017-07-09T17:50:14.165Z,5.50
2017-07-09T17:52:45.073Z,5.20
2017-07-09T17:55:16.656Z,6.17
2017-07-09T17:57:47.061Z,6.17
2017-07-09T18:00:18.664Z,4.67
2017-07-09T18:02:47.654Z,6.17
2017-07-09T18:05:16.497Z,5.20
2017-07-09T18:07:45.342Z,5.97
2017-07-09T18:10:14.176Z,4.40
2017-07-09T18:12:43.010Z,6.73
2017-07-09T18:15:11.850Z,4.80
2017-07-09T18:17:40.695Z,6.03
2017-07-09T18:20:09.521Z,5.10
2017-07-09T18:22:38.373Z,5.50
2017-07-09T18:25:07.214Z,6.93
2017-07-09T18:27:36.048Z,6.20
2017-07-09T18:30:04.895Z,8.17
2017-07-09T18:32:33.741Z,11.13
2017-07-09T18:35:02.569Z,9.50
2017-07-09T18:37:31.419Z,9.83
2017-07-09T18:40:00.253Z,9.47
2017-07-09T18:42:29.166Z,8.53
2017-07-09T18:44:58.027Z,8.37
2017-07-09T18:47:26.862Z,8.57
2017-07-09T18:49:55.693Z,7.27
2017-07-09T18:52:24.549Z,117.77
2017-07-09T18:54:53.458Z,352.10
2017-07-09T18:57:22.302Z,177.53
2017-07-09T18:59:51.199Z,137.13
2017-07-09T19:02:20.061Z,81.43
2017-07-09T19:04:48.902Z,65.10
2017-07-09T19:07:21.233Z,45.07
2017-07-09T19:09:52.205Z,87.50
2017-07-09T19:12:21.761Z,32.67
2017-07-09T19:14:51.986Z,176.63
2017-07-09T19:17:21.080Z,178.73
2017-07-09T19:19:52.642Z,117.13
2017-07-09T19:22:22.471Z,72.40
2017-07-09T19:24:51.594Z,11.53
2017-07-09T19:27:21.426Z,55.23
2017-07-09T19:29:50.578Z,47.90
2017-07-09T19:32:19.421Z,129.10
2017-07-09T19:34:48.633Z,333.87
2017-07-09T19:37:17.644Z,237.83
2017-07-09T19:39:47.382Z,173.90
2017-07-09T19:42:16.591Z,164.97
2017-07-09T19:44:45.939Z,65.10
2017-07-09T19:47:15.863Z,86.63
2017-07-09T19:49:46.402Z,75.67
2017-07-09T19:52:15.905Z,52.80
2017-07-09T19:54:45.534Z,348.87
2017-07-09T19:57:14.917Z,275.10
2017-07-09T19:59:44.271Z,104.77
2017-07-09T20:02:13.737Z,59.97
2017-07-09T20:04:42.817Z,168.53
2017-07-09T20:07:12.482Z,428.03
2017-07-09T20:09:41.477Z,265.90
2017-07-09T20:12:10.771Z,48.27
2017-07-09T20:14:39.643Z,8.80
2017-07-09T20:17:08.484Z,38.13
2017-07-09T20:19:37.431Z,44.53
2017-07-09T20:22:08.423Z,41.30
2017-07-09T20:24:39.456Z,20.57
2017-07-09T20:27:08.729Z,32.70
2017-07-09T20:29:38.363Z,23.07
2017-07-09T20:32:08.659Z,19.40
2017-07-09T20:34:37.566Z,25.33
2017-07-09T20:37:06.742Z,21.67
2017-07-09T20:39:36.736Z,30.30
2017-07-09T20:42:08.050Z,19.30
2017-07-09T20:44:39.999Z,14.70
2017-07-09T20:47:10.931Z,10.37
2017-07-09T20:49:40.681Z,8.97
2017-07-09T20:52:11.764Z,6.37
2017-07-09T20:54:42.136Z,5.57
2017-07-09T20:57:12.406Z,4.93
2017-07-09T20:59:42.167Z,3.90
2017-07-09T21:02:11.005Z,3.00
2017-07-09T21:04:42.501Z,5.13
2017-07-09T21:07:13.382Z,4.40
2017-07-09T21:09:44.340Z,4.40
2017-07-09T21:12:14.913Z,3.20
2017-07-09T21:14:45.741Z,3.40
2017-07-09T21:17:14.761Z,4.40
2017-07-09T21:19:43.587Z,3.73
2017-07-09T21:22:13.289Z,2.73
2017-07-09T21:24:45.103Z,3.83
2017-07-09T21:27:15.650Z,3.70
2017-07-09T21:29:46.268Z,4.10
2017-07-09T21:32:15.254Z,3.60
2017-07-09T21:34:46.130Z,3.00
2017-07-09T21:37:17.171Z,3.77
2017-07-09T21:39:48.220Z,3.73
2017-07-09T21:42:19.151Z,3.27
2017-07-09T21:44:50.767Z,3.47
2017-07-09T21:47:21.392Z,3.53
2017-07-09T21:49:52.150Z,2.90
2017-07-09T21:52:21.451Z,3.20
2017-07-09T21:54:51.933Z,3.50
2017-07-09T21:57:23.014Z,3.40
2017-07-09T21:59:54.008Z,2.73
2017-07-09T22:02:24.895Z,2.90
2017-07-09T22:04:55.800Z,2.77
2017-07-09T22:07:28.037Z,2.80
2017-07-09T22:09:58.786Z,2.63
2017-07-09T22:12:31.567Z,3.67
2017-07-09T22:15:02.892Z,3.93
2017-07-09T22:17:33.789Z,4.80
2017-07-09T22:20:04.951Z,2.53
2017-07-09T22:22:34.879Z,2.80
2017-07-09T22:25:05.701Z,3.13
2017-07-09T22:27:34.637Z,3.33
2017-07-09T22:30:03.728Z,3.00
2017-07-09T22:32:32.906Z,3.10
2017-07-09T22:35:01.764Z,3.10
2017-07-09T22:37:30.653Z,2.20
2017-07-09T22:39:59.654Z,2.47
2017-07-09T22:42:28.624Z,2.13
2017-07-09T22:44:57.538Z,2.40
2017-07-09T22:47:26.557Z,3.20
2017-07-09T22:49:55.518Z,2.63
2017-07-09T22:52:24.652Z,3.10
2017-07-09T22:54:53.653Z,1.83
2017-07-09T22:57:22.623Z,2.20
2017-07-09T22:59:51.525Z,2.23
2017-07-09T23:02:20.531Z,2.13
2017-07-09T23:04:49.477Z,1.97
2017-07-09T23:07:18.518Z,3.10
2017-07-09T23:09:47.376Z,2.10
2017-07-09T23:12:16.202Z,1.87
2017-07-09T23:14:45.299Z,1.63
2017-07-09T23:17:14.169Z,3.37
2017-07-09T23:19:42.998Z,2.30
2017-07-09T23:22:11.831Z,2.00
2017-07-09T23:24:40.686Z,2.53
2017-07-09T23:27:09.557Z,1.67
2017-07-09T23:29:38.392Z,2.10
2017-07-09T23:32:07.401Z,1.43
2017-07-09T23:34:36.510Z,3.40
2017-07-09T23:37:05.341Z,1.90
2017-07-09T23:39:34.173Z,2.33
2017-07-09T23:42:03.156Z,2.00
2017-07-09T23:44:31.982Z,1.87
2017-07-09T23:47:00.826Z,2.17
2017-07-09T23:49:30.090Z,2.60
2017-07-09T23:51:58.924Z,2.20
2017-07-09T23:54:27.778Z,2.07
2017-07-09T23:56:56.673Z,2.03
2017-07-09T23:59:25.504Z,1.87
